Time;durP1;ratioP1;P1;durP2;ratioP2;P2;SDS_P1;SDS_P2;PMS_P1;PMS_P2;Temp;Humidity;BMP_temperature;BMP_pressure;BME280_temperature;BME280_humidity;BME280_pressure;Samples;Min_cycle;Max_cycle;Signal;HPM_P1;HPM_P2
2020/12/13 09:25:53;;;;;;;2.47;1.20;;;7.60;99.90;;;;;;4917948;29;20260;-71
2020/12/13 09:28:19;;;;;;;3.80;1.10;;;7.70;99.90;;;;;;4919887;29;20668;-71
2020/12/13 09:30:46;;;;;;;3.40;1.23;;;7.60;99.90;;;;;;4919619;29;20225;-71
2020/12/13 09:33:15;;;;;;;1.33;1.00;;;7.50;99.90;;;;;;4919686;29;20295;-71
2020/12/13 09:35:41;;;;;;;4.40;1.13;;;7.50;99.90;;;;;;4919567;29;20213;-71
2020/12/13 09:38:09;;;;;;;3.00;1.20;;;7.50;99.90;;;;;;4919655;29;20213;-78
2020/12/13 09:40:36;;;;;;;2.80;1.00;;;7.50;99.90;;;;;;4919124;29;20245;-72
2020/12/13 09:43:03;;;;;;;3.73;0.73;;;7.50;99.90;;;;;;4919375;29;20210;-70
2020/12/13 09:45:30;;;;;;;4.73;1.23;;;7.60;99.90;;;;;;4919586;29;20213;-70
2020/12/13 09:47:56;;;;;;;4.20;1.17;;;7.70;99.90;;;;;;4919382;29;20214;-71
2020/12/13 09:50:23;;;;;;;5.97;1.20;;;7.60;99.90;;;;;;4919134;29;20248;-71
2020/12/13 09:52:49;;;;;;;5.77;1.27;;;7.60;99.90;;;;;;4919513;29;20296;-70
2020/12/13 09:55:16;;;;;;;4.17;1.30;;;7.60;99.90;;;;;;4919231;29;20224;-70
2020/12/13 09:57:42;;;;;;;5.70;1.20;;;7.70;99.90;;;;;;4919257;29;20538;-70
2020/12/13 10:00:09;;;;;;;2.70;1.13;;;7.70;99.90;;;;;;4919012;29;20245;-70
2020/12/13 10:02:35;;;;;;;4.10;1.27;;;7.60;99.90;;;;;;4919034;29;20584;-70
2020/12/13 10:05:05;;;;;;;2.00;0.90;;;7.60;99.90;;;;;;4919188;29;20210;-71
2020/12/13 10:10:12;;;;;;;8.03;1.43;;;7.70;99.90;;;;;;4917536;29;20228;-75
2020/12/13 10:12:38;;;;;;;2.90;1.37;;;7.80;99.90;;;;;;4918270;29;20213;-76
2020/12/13 10:15:05;;;;;;;5.83;1.13;;;7.90;99.90;;;;;;4918075;29;20214;-74
2020/12/13 10:17:32;;;;;;;2.90;1.13;;;8.00;99.90;;;;;;4918071;29;20213;-75
2020/12/13 10:19:58;;;;;;;4.40;1.40;;;8.10;99.90;;;;;;4917962;29;20241;-74
2020/12/13 10:22:24;;;;;;;3.57;1.10;;;8.30;99.90;;;;;;4918186;29;20205;-74
2020/12/13 10:24:50;;;;;;;5.00;1.93;;;8.40;99.90;;;;;;4917944;29;20217;-74
2020/12/13 10:27:16;;;;;;;2.60;0.83;;;8.60;99.90;;;;;;4918073;29;20209;-79
2020/12/13 10:29:43;;;;;;;2.40;1.30;;;8.60;99.90;;;;;;4917343;29;20549;-74
2020/12/13 10:32:09;;;;;;;4.87;1.10;;;8.60;99.90;;;;;;4918180;29;20206;-74
2020/12/13 10:34:36;;;;;;;4.53;0.90;;;8.70;99.90;;;;;;4918118;29;20222;-78
2020/12/13 10:37:02;;;;;;;4.47;1.60;;;8.80;99.90;;;;;;4917701;29;20573;-74
2020/12/13 10:39:28;;;;;;;6.13;1.73;;;8.90;99.90;;;;;;4899857;29;20234;-75
2020/12/13 10:41:55;;;;;;;4.53;1.10;;;9.00;99.90;;;;;;4899200;29;20238;-76
2020/12/13 10:44:21;;;;;;;5.97;1.53;;;8.90;99.90;;;;;;4899261;29;20261;-75
2020/12/13 10:46:48;;;;;;;5.43;1.20;;;8.90;99.90;;;;;;4899011;29;20214;-75
2020/12/13 10:49:15;;;;;;;3.47;1.70;;;8.90;99.90;;;;;;4914542;29;20221;-75
2020/12/13 10:51:42;;;;;;;2.77;1.10;;;8.80;99.90;;;;;;4917819;29;20229;-75
2020/12/13 10:54:09;;;;;;;1.23;0.90;;;8.70;99.90;;;;;;4917156;29;20213;-75
2020/12/13 10:56:36;;;;;;;2.87;1.10;;;8.80;99.90;;;;;;4917444;29;20213;-75
2020/12/13 10:59:02;;;;;;;1.83;1.10;;;8.90;99.90;;;;;;4917662;29;20210;-74
2020/12/13 11:01:28;;;;;;;1.63;1.00;;;9.00;99.90;;;;;;4916848;29;20236;-75
2020/12/13 11:03:54;;;;;;;4.83;1.43;;;9.00;99.90;;;;;;4917477;29;20789;-74
2020/12/13 11:06:21;;;;;;;2.57;1.13;;;9.00;99.90;;;;;;4907558;29;20215;-76
2020/12/13 11:08:48;;;;;;;10.20;1.90;;;9.00;99.90;;;;;;4909719;29;20699;-74
2020/12/13 11:11:14;;;;;;;3.57;1.20;;;9.10;99.90;;;;;;4917392;29;20237;-78
2020/12/13 11:13:42;;;;;;;4.40;1.20;;;9.20;99.90;;;;;;4917529;29;20213;-75
2020/12/13 11:16:09;;;;;;;3.73;1.03;;;9.20;99.90;;;;;;4897227;29;20308;-73
2020/12/13 11:18:35;;;;;;;3.83;1.10;;;9.10;99.90;;;;;;4915772;29;20380;-74
2020/12/13 11:21:01;;;;;;;6.17;1.17;;;9.20;99.90;;;;;;4916180;29;20242;-74
2020/12/13 11:23:27;;;;;;;4.83;1.10;;;9.20;99.90;;;;;;4915307;29;20224;-73
2020/12/13 11:25:55;;;;;;;4.80;1.00;;;9.10;99.90;;;;;;4915527;29;20217;-79
2020/12/13 11:28:21;;;;;;;3.97;1.30;;;9.20;99.90;;;;;;4915721;29;20684;-75
2020/12/13 11:30:48;;;;;;;4.17;1.33;;;9.30;99.90;;;;;;4915682;29;20225;-75
2020/12/13 11:33:14;;;;;;;4.80;1.43;;;9.30;99.90;;;;;;4912241;29;20572;-75
2020/12/13 11:35:40;;;;;;;7.60;2.03;;;9.20;99.90;;;;;;4915978;29;20213;-73
2020/12/13 11:38:07;;;;;;;6.30;1.50;;;9.20;99.90;;;;;;4915120;29;20215;-73
2020/12/13 11:40:33;;;;;;;4.40;1.20;;;9.20;99.90;;;;;;4915593;29;20245;-78
2020/12/13 11:43:00;;;;;;;3.53;1.10;;;9.30;99.90;;;;;;4916168;29;20216;-74
2020/12/13 11:45:26;;;;;;;3.33;1.40;;;9.50;99.90;;;;;;4911793;29;20209;-71
2020/12/13 11:47:52;;;;;;;3.23;1.50;;;9.50;99.90;;;;;;4915405;29;20214;-73
2020/12/13 11:50:19;;;;;;;2.13;1.40;;;9.50;99.90;;;;;;4915295;29;20237;-73
2020/12/13 11:52:45;;;;;;;4.27;1.40;;;9.20;99.90;;;;;;4914752;29;20743;-73
2020/12/13 11:55:11;;;;;;;5.10;1.70;;;9.00;99.90;;;;;;4915120;29;20209;-76
2020/12/13 11:57:38;;;;;;;6.70;1.60;;;9.10;99.90;;;;;;4915013;29;20203;-75
2020/12/13 12:00:05;;;;;;;1.87;1.37;;;9.20;99.90;;;;;;4908398;29;20274;-74
2020/12/13 12:02:32;;;;;;;1.80;0.87;;;9.10;99.90;;;;;;4896383;29;20247;-73
2020/12/13 12:04:58;;;;;;;3.33;1.47;;;8.90;99.90;;;;;;4905959;29;20217;-75
2020/12/13 12:07:24;;;;;;;6.13;1.80;;;8.90;99.90;;;;;;4915033;29;20213;-74
2020/12/13 12:09:51;;;;;;;5.00;1.37;;;9.00;99.90;;;;;;4915642;29;20214;-73
2020/12/13 12:12:17;;;;;;;3.00;1.60;;;9.10;99.90;;;;;;4912654;29;20582;-78
2020/12/13 12:14:44;;;;;;;7.63;1.33;;;9.10;99.90;;;;;;4914906;29;20572;-79
2020/12/13 12:17:11;;;;;;;3.80;1.60;;;9.20;99.90;;;;;;4915387;29;20569;-76
2020/12/13 12:19:39;;;;;;;1.93;1.30;;;9.20;99.90;;;;;;4915084;29;20225;-69
2020/12/13 12:22:05;;;;;;;5.23;1.27;;;9.10;99.90;;;;;;4914325;29;20222;-75
2020/12/13 12:24:31;;;;;;;3.47;1.10;;;9.10;99.90;;;;;;4914446;29;20225;-75
2020/12/13 12:27:00;;;;;;;3.47;1.50;;;9.10;99.90;;;;;;4903399;29;20221;-74
2020/12/13 12:29:26;;;;;;;4.50;1.30;;;9.20;99.90;;;;;;4895883;29;20678;-74
2020/12/13 12:31:52;;;;;;;4.33;1.27;;;9.20;99.90;;;;;;4910506;29;20229;-71
2020/12/13 12:34:19;;;;;;;3.40;1.20;;;9.20;99.90;;;;;;4915166;29;20206;-75
2020/12/13 12:36:45;;;;;;;5.43;1.17;;;9.30;99.90;;;;;;4915336;29;20213;-72
2020/12/13 12:39:12;;;;;;;3.23;1.40;;;9.40;99.90;;;;;;4914366;29;20206;-74
2020/12/13 12:41:38;;;;;;;2.67;1.27;;;9.10;99.90;;;;;;4916992;29;20225;-76
2020/12/13 12:44:04;;;;;;;5.70;1.47;;;9.00;99.90;;;;;;4920247;29;20205;-71
2020/12/13 12:46:30;;;;;;;3.13;0.97;;;8.90;99.90;;;;;;4920145;29;20213;-71
2020/12/13 12:48:57;;;;;;;3.90;1.17;;;9.00;99.90;;;;;;4919583;29;20209;-71
2020/12/13 12:51:27;;;;;;;3.37;1.30;;;9.00;99.90;;;;;;4920143;29;20233;-77
2020/12/13 12:53:53;;;;;;;6.17;1.00;;;9.10;99.90;;;;;;4919459;29;20573;-77
2020/12/13 12:56:19;;;;;;;4.40;1.10;;;8.90;99.90;;;;;;4919558;29;20206;-71
2020/12/13 12:58:49;;;;;;;2.17;1.03;;;8.80;99.90;;;;;;4919879;29;20214;-71
2020/12/13 13:01:17;;;;;;;2.60;0.93;;;8.80;99.90;;;;;;4919745;29;20245;-70
2020/12/13 13:03:45;;;;;;;1.70;1.07;;;8.80;99.90;;;;;;4919638;29;20213;-71
2020/12/13 13:06:26;;;;;;;4.80;1.00;;;8.80;99.90;;;;;;4919374;29;20206;-71
2020/12/13 13:09:02;;;;;;;4.20;1.50;;;8.80;99.90;;;;;;4919479;29;20231;-77
2020/12/13 13:11:34;;;;;;;3.40;1.10;;;8.90;99.90;;;;;;4907345;29;20233;-71
2020/12/13 13:14:00;;;;;;;2.53;0.97;;;8.80;99.90;;;;;;4919536;29;20692;-70
2020/12/13 13:16:26;;;;;;;3.77;1.63;;;8.80;99.90;;;;;;4906372;29;20228;-71
2020/12/13 13:18:55;;;;;;;3.33;1.23;;;8.90;99.90;;;;;;4919789;29;20221;-78
2020/12/13 13:21:22;;;;;;;2.47;1.03;;;9.00;99.90;;;;;;4919224;29;20589;-70
2020/12/13 13:23:48;;;;;;;3.90;1.30;;;9.00;99.90;;;;;;4919352;29;20613;-71
2020/12/13 13:26:21;;;;;;;3.50;1.57;;;8.90;99.90;;;;;;4919319;29;20273;-75
2020/12/13 13:28:47;;;;;;;2.43;1.33;;;9.00;99.90;;;;;;4919381;29;20273;-70
2020/12/13 13:31:14;;;;;;;6.67;1.17;;;8.80;99.90;;;;;;4919202;29;20700;-75
2020/12/13 13:33:41;;;;;;;3.77;1.20;;;8.80;99.90;;;;;;4919563;29;20222;-78
2020/12/13 13:36:12;;;;;;;3.70;1.33;;;8.80;99.90;;;;;;4919378;29;20213;-70
2020/12/13 13:38:39;;;;;;;2.30;0.90;;;8.60;99.90;;;;;;4906785;29;20680;-72
2020/12/13 13:41:07;;;;;;;1.30;0.90;;;8.70;99.90;;;;;;4918768;29;20245;-70
2020/12/13 13:43:38;;;;;;;6.97;2.13;;;8.60;99.90;;;;;;4919226;29;20572;-70
2020/12/13 13:51:38;;;;;;;3.07;1.67;;;8.50;99.90;;;;;;4918537;29;20604;-70
2020/12/13 13:54:07;;;;;;;5.90;1.70;;;8.60;99.90;;;;;;4917932;29;20216;-77
2020/12/13 13:56:40;;;;;;;2.67;1.40;;;8.50;99.90;;;;;;4918825;29;20661;-70
2020/12/13 13:59:07;;;;;;;2.43;1.20;;;8.40;99.90;;;;;;4918863;29;20209;-78
2020/12/13 14:01:35;;;;;;;8.17;1.80;;;8.40;99.90;;;;;;4918980;29;20245;-71
2020/12/13 14:04:01;;;;;;;3.90;1.57;;;8.40;99.90;;;;;;4918551;29;20577;-70
2020/12/13 14:06:41;;;;;;;5.03;1.37;;;8.50;99.90;;;;;;4918753;29;20269;-75
2020/12/13 14:09:07;;;;;;;5.07;1.37;;;8.50;99.90;;;;;;4918495;29;20201;-70
2020/12/13 14:11:33;;;;;;;3.23;1.27;;;8.40;99.90;;;;;;4918489;29;20233;-76
2020/12/13 14:13:59;;;;;;;8.40;1.13;;;8.40;99.90;;;;;;4918308;29;20214;-70
2020/12/13 14:16:26;;;;;;;1.90;1.30;;;8.40;99.90;;;;;;4918411;29;20213;-76
2020/12/13 14:18:53;;;;;;;2.63;1.27;;;8.50;99.90;;;;;;4918369;29;20213;-71
2020/12/13 14:21:19;;;;;;;4.97;1.20;;;8.50;99.90;;;;;;4918504;29;20323;-78
2020/12/13 14:23:45;;;;;;;5.00;1.30;;;8.50;99.90;;;;;;4918224;29;20257;-78
2020/12/13 14:26:12;;;;;;;3.77;1.30;;;8.50;99.90;;;;;;4918028;29;20202;-70
2020/12/13 14:28:38;;;;;;;4.43;1.33;;;8.30;99.90;;;;;;4918131;29;20296;-71
2020/12/13 14:31:05;;;;;;;2.50;1.40;;;8.30;99.90;;;;;;4918077;29;20236;-78
2020/12/13 14:33:33;;;;;;;3.87;1.47;;;8.30;99.90;;;;;;4918197;29;20261;-73
2020/12/13 14:35:59;;;;;;;5.27;1.43;;;8.30;99.90;;;;;;4917510;29;20210;-76
2020/12/13 14:38:25;;;;;;;3.87;1.40;;;8.20;99.90;;;;;;4917562;29;20209;-76
2020/12/13 14:40:51;;;;;;;4.43;1.43;;;8.10;99.90;;;;;;4917525;29;20245;-78
2020/12/13 14:43:18;;;;;;;5.37;1.60;;;8.00;99.90;;;;;;4914808;29;20206;-73
2020/12/13 14:45:45;;;;;;;3.90;1.37;;;8.00;99.90;;;;;;4916562;29;20315;-77
2020/12/13 14:48:11;;;;;;;5.07;1.10;;;8.00;99.90;;;;;;4916223;29;20218;-75
2020/12/13 14:50:38;;;;;;;7.27;1.80;;;7.90;99.90;;;;;;4914457;29;20240;-77
2020/12/13 14:53:06;;;;;;;5.63;1.50;;;8.00;99.90;;;;;;4916485;29;20209;-72
2020/12/13 14:55:33;;;;;;;6.83;1.30;;;8.00;99.90;;;;;;4916209;29;20214;-71
2020/12/13 14:58:00;;;;;;;2.70;1.20;;;8.10;99.90;;;;;;4909077;29;20241;-74
2020/12/13 15:00:26;;;;;;;2.23;0.93;;;8.10;99.90;;;;;;4896682;29;20239;-73
2020/12/13 15:02:52;;;;;;;2.57;1.20;;;8.00;99.90;;;;;;4897781;29;20214;-72
2020/12/13 15:05:19;;;;;;;4.47;1.07;;;8.00;99.90;;;;;;4915279;29;20213;-70
2020/12/13 15:07:46;;;;;;;4.17;1.33;;;7.90;99.90;;;;;;4916807;29;20217;-70
2020/12/13 15:10:12;;;;;;;2.33;0.93;;;7.90;99.90;;;;;;4916565;29;20238;-74
2020/12/13 15:12:38;;;;;;;0.90;0.80;;;7.90;99.90;;;;;;4916002;29;20664;-72
2020/12/13 15:15:08;;;;;;;3.70;1.40;;;7.70;99.90;;;;;;4899234;29;20296;-73
2020/12/13 15:17:37;;;;;;;4.63;1.33;;;7.60;99.90;;;;;;4897172;29;20210;-75
2020/12/13 15:20:04;;;;;;;2.13;0.90;;;7.50;99.90;;;;;;4906513;29;20241;-72
2020/12/13 15:22:30;;;;;;;1.73;0.83;;;7.50;99.90;;;;;;4916530;29;20214;-72
2020/12/13 15:24:57;;;;;;;2.13;1.10;;;7.50;99.90;;;;;;4915243;29;20224;-71
2020/12/13 15:27:23;;;;;;;3.67;1.10;;;7.50;99.90;;;;;;4908824;29;20573;-72
2020/12/13 15:29:50;;;;;;;2.53;1.00;;;7.40;99.90;;;;;;4907000;29;20208;-74
2020/12/13 15:32:16;;;;;;;2.43;0.90;;;7.40;99.90;;;;;;4907026;29;20214;-74
2020/12/13 15:34:42;;;;;;;2.57;1.20;;;7.40;99.90;;;;;;4912836;29;20470;-74
2020/12/13 15:37:09;;;;;;;2.97;1.00;;;7.50;99.90;;;;;;4914665;29;20679;-71
2020/12/13 15:39:36;;;;;;;3.57;1.20;;;7.50;99.90;;;;;;4914210;29;20210;-73
2020/12/13 15:42:03;;;;;;;3.23;1.07;;;7.30;99.90;;;;;;4898298;29;20222;-74
2020/12/13 15:44:29;;;;;;;4.13;1.10;;;7.40;99.90;;;;;;4907638;29;20210;-73
2020/12/13 15:46:56;;;;;;;4.13;1.10;;;7.50;99.90;;;;;;4913807;29;20220;-72
2020/12/13 15:49:22;;;;;;;5.17;0.93;;;7.40;99.90;;;;;;4914716;29;20213;-73
2020/12/13 15:51:49;;;;;;;3.13;1.17;;;7.40;99.90;;;;;;4915299;29;20245;-73
2020/12/13 15:54:15;;;;;;;5.73;0.90;;;7.40;99.90;;;;;;4916180;29;20219;-73
2020/12/13 15:56:42;;;;;;;3.37;0.70;;;7.40;99.90;;;;;;4915142;29;20216;-74
2020/12/13 15:59:09;;;;;;;1.87;0.83;;;7.30;99.90;;;;;;4915006;29;20217;-75
2020/12/13 16:01:35;;;;;;;1.67;1.10;;;7.30;99.90;;;;;;4914716;29;20249;-75
2020/12/13 16:04:01;;;;;;;2.30;1.13;;;7.30;99.90;;;;;;4914380;29;20214;-75
2020/12/13 16:06:29;;;;;;;2.53;1.27;;;7.30;99.90;;;;;;4915072;29;20224;-75
2020/12/13 16:08:56;;;;;;;4.93;1.10;;;7.40;99.90;;;;;;4912131;29;20213;-74
2020/12/13 16:11:23;;;;;;;2.03;0.80;;;7.30;99.90;;;;;;4913265;29;20256;-82
2020/12/13 16:13:49;;;;;;;1.07;0.90;;;7.40;99.90;;;;;;4908934;29;20225;-72
2020/12/13 16:16:17;;;;;;;2.30;1.07;;;7.40;99.90;;;;;;4914267;29;20213;-73
2020/12/13 16:18:43;;;;;;;2.20;0.80;;;7.40;99.90;;;;;;4915145;29;20218;-76
2020/12/13 16:21:10;;;;;;;2.27;1.07;;;7.20;99.90;;;;;;4914918;29;20249;-75
2020/12/13 16:23:36;;;;;;;5.13;1.40;;;7.30;99.90;;;;;;4914173;29;20272;-74
2020/12/13 16:26:03;;;;;;;2.40;1.10;;;7.30;99.90;;;;;;4913904;29;20577;-76
2020/12/13 16:28:29;;;;;;;2.47;0.97;;;7.30;99.90;;;;;;4914395;29;20293;-74
2020/12/13 16:30:55;;;;;;;2.27;1.00;;;7.40;99.90;;;;;;4914814;29;20232;-74
2020/12/13 16:33:24;;;;;;;8.03;1.23;;;7.30;99.90;;;;;;4914365;29;20209;-71
2020/12/13 16:35:51;;;;;;;3.63;1.40;;;7.30;99.90;;;;;;4914189;29;20759;-73
2020/12/13 16:38:19;;;;;;;2.67;1.30;;;7.30;99.90;;;;;;4911534;29;20946;-71
2020/12/13 16:40:54;;;;;;;5.47;0.90;;;7.40;99.90;;;;;;4914322;29;20267;-69
2020/12/13 16:43:31;;;;;;;3.30;1.20;;;7.40;99.90;;;;;;4914583;29;20269;-69
2020/12/13 16:46:02;;;;;;;5.97;1.50;;;7.40;99.90;;;;;;4913260;29;20260;-74
2020/12/13 16:48:31;;;;;;;6.53;1.33;;;7.40;99.90;;;;;;4914750;29;20209;-72
2020/12/13 16:51:07;;;;;;;7.53;1.20;;;7.50;99.90;;;;;;4914678;29;20328;-69
2020/12/13 16:56:14;;;;;;;1.70;1.10;;;7.40;99.90;;;;;;4914358;29;20680;-72
2020/12/13 16:58:41;;;;;;;2.87;1.33;;;7.40;99.90;;;;;;4914548;29;20221;-69
2020/12/13 17:01:09;;;;;;;4.80;1.30;;;7.30;99.90;;;;;;4913760;29;20718;-72
2020/12/13 17:03:36;;;;;;;2.73;1.00;;;7.30;99.90;;;;;;4914291;29;20213;-71
2020/12/13 17:06:02;;;;;;;2.67;1.00;;;7.20;99.90;;;;;;4896309;29;20215;-71
2020/12/13 17:08:29;;;;;;;2.27;1.00;;;7.30;99.90;;;;;;4907416;29;20210;-72
2020/12/13 17:10:58;;;;;;;4.00;0.90;;;7.30;99.90;;;;;;4914295;29;20244;-69
2020/12/13 17:13:25;;;;;;;4.00;1.13;;;7.30;99.90;;;;;;4914401;29;20266;-70
2020/12/13 17:15:51;;;;;;;2.30;0.93;;;7.40;99.90;;;;;;4914611;29;20205;-70
2020/12/13 17:18:18;;;;;;;2.43;1.37;;;7.40;99.90;;;;;;4914187;29;20217;-71
2020/12/13 17:20:45;;;;;;;3.67;1.30;;;7.50;99.90;;;;;;4914214;29;20264;-75
2020/12/13 17:23:11;;;;;;;4.07;1.00;;;7.50;99.90;;;;;;4914335;29;20206;-73
2020/12/13 17:25:43;;;;;;;4.57;1.47;;;7.60;99.90;;;;;;4914031;29;20229;-72
2020/12/13 17:28:09;;;;;;;3.43;1.33;;;7.40;99.90;;;;;;4915911;29;20584;-70
2020/12/13 17:30:35;;;;;;;6.47;1.70;;;7.40;99.90;;;;;;4917327;29;20336;-71
2020/12/13 17:33:02;;;;;;;6.70;1.63;;;7.40;99.90;;;;;;4907419;29;20554;-73
2020/12/13 17:35:28;;;;;;;4.87;1.27;;;7.50;99.90;;;;;;4917886;29;20572;-72
2020/12/13 17:37:55;;;;;;;3.83;0.90;;;7.50;99.90;;;;;;4917922;29;20217;-70
2020/12/13 17:40:22;;;;;;;1.90;1.00;;;7.40;99.90;;;;;;4916858;29;20269;-74
2020/12/13 17:42:49;;;;;;;5.20;1.33;;;7.40;99.90;;;;;;4916907;29;20218;-70
2020/12/13 17:45:18;;;;;;;2.37;0.80;;;7.30;99.90;;;;;;4917390;29;20221;-70
2020/12/13 17:47:45;;;;;;;6.27;1.20;;;7.40;99.90;;;;;;4905416;29;20218;-72
2020/12/13 17:50:51;;;;;;;4.27;1.23;;;7.40;99.90;;;;;;4899607;29;20265;-70
2020/12/13 17:53:19;;;;;;;10.90;1.30;;;7.50;99.90;;;;;;4916905;29;20214;-70
2020/12/13 17:55:58;;;;;;;3.37;1.00;;;7.40;99.90;;;;;;4917374;29;20304;-72
2020/12/13 17:58:26;;;;;;;2.60;1.27;;;7.40;99.90;;;;;;4916405;29;20220;-73
2020/12/13 18:00:53;;;;;;;2.10;0.87;;;7.40;99.90;;;;;;4915648;29;20237;-72
2020/12/13 18:03:19;;;;;;;3.13;1.30;;;7.50;99.90;;;;;;4906240;29;20218;-70
2020/12/13 18:05:46;;;;;;;7.00;0.97;;;7.50;99.90;;;;;;4917312;29;20213;-71
2020/12/13 18:08:14;;;;;;;2.37;1.60;;;7.40;99.90;;;;;;4916633;29;20253;-71
2020/12/13 18:10:40;;;;;;;3.67;1.10;;;7.40;99.90;;;;;;4916936;29;20229;-74
2020/12/13 18:13:09;;;;;;;2.03;0.90;;;7.40;99.90;;;;;;4916701;29;20227;-74
2020/12/13 18:15:36;;;;;;;2.40;0.90;;;7.40;99.90;;;;;;4915232;29;20740;-71
2020/12/13 18:18:03;;;;;;;3.40;1.03;;;7.50;99.90;;;;;;4912715;29;20227;-78
2020/12/13 18:20:29;;;;;;;5.33;0.93;;;7.60;99.90;;;;;;4916454;29;20245;-70
2020/12/13 18:22:55;;;;;;;5.57;1.10;;;7.50;99.90;;;;;;4916987;29;20232;-73
2020/12/13 18:25:23;;;;;;;1.53;1.13;;;7.50;99.90;;;;;;4912969;29;20699;-73
2020/12/13 18:27:49;;;;;;;2.27;0.90;;;7.50;99.90;;;;;;4898171;29;20210;-75
2020/12/13 18:30:19;;;;;;;3.23;1.10;;;7.50;99.90;;;;;;4895286;29;20246;-71
2020/12/13 18:32:45;;;;;;;2.17;1.10;;;7.60;99.90;;;;;;4913151;29;20691;-71
2020/12/13 18:35:11;;;;;;;1.77;1.00;;;7.60;99.90;;;;;;4916128;29;20201;-71
2020/12/13 18:37:38;;;;;;;3.13;0.83;;;7.50;99.90;;;;;;4916377;29;20214;-71
2020/12/13 18:40:04;;;;;;;2.53;0.77;;;7.50;99.90;;;;;;4915279;29;20589;-73
2020/12/13 18:42:31;;;;;;;1.90;0.90;;;7.50;99.90;;;;;;4897717;29;20556;-69
2020/12/13 18:45:01;;;;;;;2.07;1.07;;;7.40;99.90;;;;;;4909482;29;20265;-71
2020/12/13 18:47:27;;;;;;;2.50;0.97;;;7.50;99.90;;;;;;4917008;29;20213;-68
2020/12/13 18:49:54;;;;;;;3.50;1.50;;;7.50;99.90;;;;;;4916984;29;20225;-75
2020/12/13 18:52:20;;;;;;;4.27;1.00;;;7.40;99.90;;;;;;4916261;29;20214;-68
2020/12/13 18:54:46;;;;;;;1.87;1.00;;;7.40;99.90;;;;;;4916920;29;20202;-68
2020/12/13 18:57:12;;;;;;;4.37;1.00;;;7.30;99.90;;;;;;4917074;29;20205;-68
2020/12/13 18:59:40;;;;;;;2.33;0.80;;;7.40;99.90;;;;;;4916142;29;20221;-71
2020/12/13 19:02:14;;;;;;;5.93;1.10;;;7.40;99.90;;;;;;4916204;29;20245;-68
2020/12/13 19:04:47;;;;;;;2.50;0.93;;;7.40;99.90;;;;;;4916798;29;20565;-69
2020/12/13 19:07:13;;;;;;;4.00;1.10;;;7.50;99.90;;;;;;4916642;29;20216;-69
2020/12/13 19:09:39;;;;;;;2.53;1.10;;;7.60;99.90;;;;;;4916592;29;20641;-70
2020/12/13 19:12:06;;;;;;;1.50;0.90;;;7.70;99.90;;;;;;4916791;29;20629;-70
2020/12/13 19:14:32;;;;;;;2.70;0.87;;;7.60;99.90;;;;;;4916735;29;20205;-69
2020/12/13 19:16:59;;;;;;;3.43;1.10;;;7.50;99.90;;;;;;4916456;29;20230;-81
2020/12/13 19:19:26;;;;;;;4.07;0.93;;;7.50;99.90;;;;;;4907674;29;20214;-71
2020/12/13 19:21:52;;;;;;;4.30;1.30;;;7.50;99.90;;;;;;4915700;29;20241;-69
2020/12/13 19:24:18;;;;;;;6.80;0.97;;;7.60;99.90;;;;;;4915682;29;20696;-73
2020/12/13 19:26:44;;;;;;;2.70;1.20;;;7.60;99.90;;;;;;4915857;29;20209;-73
2020/12/13 19:29:11;;;;;;;3.90;0.60;;;7.60;99.90;;;;;;4916370;29;20225;-78
2020/12/13 19:31:38;;;;;;;3.30;1.10;;;7.60;99.90;;;;;;4916352;29;20233;-78
2020/12/13 19:34:05;;;;;;;3.40;1.10;;;7.60;99.90;;;;;;4916419;29;20217;-73
2020/12/13 19:36:31;;;;;;;1.37;0.80;;;7.60;99.90;;;;;;4916483;29;20252;-81
2020/12/13 19:38:58;;;;;;;4.07;0.73;;;7.60;99.90;;;;;;4916366;29;20209;-72
2020/12/13 19:41:24;;;;;;;7.03;1.03;;;7.60;99.90;;;;;;4915967;29;20237;-73
2020/12/13 19:43:50;;;;;;;3.43;0.80;;;7.70;99.90;;;;;;4915076;29;20209;-76
2020/12/13 19:46:21;;;;;;;2.33;0.53;;;7.70;99.90;;;;;;4904150;29;20436;-72
2020/12/13 19:48:49;;;;;;;4.60;0.80;;;7.70;99.90;;;;;;4898893;29;20559;-73
2020/12/13 19:51:20;;;;;;;5.00;0.80;;;7.70;99.90;;;;;;4900120;29;20233;-75
2020/12/13 19:53:47;;;;;;;3.10;0.67;;;7.70;99.90;;;;;;4896294;29;20307;-73
2020/12/13 19:56:14;;;;;;;2.27;0.80;;;7.70;99.90;;;;;;4900748;29;20217;-75
2020/12/13 19:58:40;;;;;;;2.50;0.70;;;7.80;99.90;;;;;;4897412;29;20214;-76
2020/12/13 20:01:09;;;;;;;1.97;0.87;;;7.90;99.90;;;;;;4897185;29;20332;-74
2020/12/13 20:03:35;;;;;;;2.57;0.50;;;7.90;99.90;;;;;;4897677;29;20210;-74
2020/12/13 20:06:09;;;;;;;6.33;0.80;;;7.90;99.90;;;;;;4898056;29;20214;-73
2020/12/13 20:08:36;;;;;;;3.93;0.90;;;7.90;99.90;;;;;;4897793;29;20211;-73
2020/12/13 20:11:02;;;;;;;2.87;0.60;;;7.90;99.90;;;;;;4897951;29;20230;-73
2020/12/13 20:13:31;;;;;;;3.07;1.10;;;7.90;99.90;;;;;;4897778;29;20673;-72
2020/12/13 20:16:02;;;;;;;2.50;0.60;;;7.90;99.90;;;;;;4897861;29;20214;-73
2020/12/13 21:11:55;;;;;;;1.03;0.50;;;7.70;99.90;;;;;;4900996;29;20329;-77
2020/12/13 21:20:07;;;;;;;2.07;0.50;;;7.90;99.90;;;;;;4843301;29;20232;-73
2020/12/13 21:22:35;;;;;;;1.83;0.50;;;8.00;99.90;;;;;;4890126;29;20245;-76
2020/12/13 21:28:31;;;;;;;4.83;0.60;;;8.20;99.90;;;;;;4890086;29;20210;-73
2020/12/13 21:37:01;;;;;;;1.30;0.40;;;8.30;99.90;;;;;;4864427;29;20624;-76
2020/12/13 21:39:54;;;;;;;1.03;0.30;;;8.20;99.90;;;;;;4900813;29;20214;-76
2020/12/13 21:45:19;;;;;;;1.47;0.50;;;8.20;99.90;;;;;;4900519;29;20677;-74
2020/12/13 21:47:54;;;;;;;0.50;0.30;;;8.30;99.90;;;;;;4900615;29;20210;-76
2020/12/13 21:53:04;;;;;;;1.47;0.50;;;8.30;99.90;;;;;;4900573;29;20217;-73
2020/12/13 21:55:42;;;;;;;4.70;0.40;;;8.30;99.90;;;;;;4900247;29;20550;-72
2020/12/13 21:58:09;;;;;;;1.00;0.70;;;8.30;99.90;;;;;;4900053;29;20210;-76
2020/12/13 22:03:35;;;;;;;0.80;0.30;;;8.30;99.90;;;;;;4900276;29;20270;-73
